Flight Track Log - Related Links

Times and Time Zones

All times are in EDT time to prevent confusion due to time zone crossing. See the DAL1744 flight status page for this flight to view local times or setup timezone preferences in your user account.

Time Position Orientation Groundspeed Altitude Reporting Facility
EDT Latitude Longitude Course Direction KTS MPH feet Rate Location/Type
Sat 10:36:17 AM 42.2036 -83.3536 192° South 155 178 1,300  Level FAA TRACON SMA TRACON (SMA)
Sat 10:36:57 AM 42.1722 -83.3625 189° South 185 213 2,800 2,127 Climbing FAA TRACON SMA TRACON (SMA)
Sat 10:37:36 AM 42.1306 -83.3717 190° South 241 277 4,100 2,506 Climbing FAA TRACON SMA TRACON (SMA)
Sat 10:38:16 AM 42.0808 -83.3836 191° South 277 319 6,100 3,150 Climbing FAA TRACON SMA TRACON (SMA)
Sat 10:38:56 AM 42.0297 -83.3969 157° South 285 328 8,300 2,775 Climbing FAA TRACON SMA TRACON (SMA)
Sat 10:39:36 AM 41.9814 -83.3692 104° East 317 365 9,800 1,259 Climbing FAA TRACON SMA TRACON (SMA)
Sat 10:40:17 AM 41.9650 -83.2806 76° East 383 441 10,000 148 Climbing FAA TRACON SMA TRACON (SMA)
Sat 10:40:57 AM 41.9828 -83.1867 77° East 382 440 10,000 835 Level FAA TRACON SMA TRACON (SMA)
Sat 10:41:36 AM 41.9986 -83.0975 79° East 386 444 11,100 2,203 Climbing FAA TRACON SMA TRACON (SMA)
Sat 10:42:16 AM 42.0133 -82.9989 79° East 393 452 12,900 2,593 Climbing FAA TRACON SMA TRACON (SMA)
Sat 10:42:57 AM 42.0283 -82.8942 79° East 412 474 14,600 1,481 Climbing FAA TRACON SMA TRACON (SMA)
Sat 10:43:37 AM 42.0428 -82.7944 79° East 421 484 14,900 304 Climbing FAA TRACON SMA TRACON (SMA)
Sat 10:44:16 AM 42.0581 -82.6908 79° East 424 488 15,000 76 Climbing FAA TRACON SMA TRACON (SMA)
Sat 10:44:56 AM 42.0736 -82.5839 82° East 422 486 15,000  Level FAA TRACON SMA TRACON (SMA)
Sat 10:45:36 AM 42.0839 -82.4869 97° East 426 490 15,000 741 Level FAA TRACON SMA TRACON (SMA)
Sat 10:46:17 AM 42.0742 -82.3761 101° East 433 498 16,000 2,000 Climbing FAA TRACON SMA TRACON (SMA)
Sat 10:46:57 AM 42.0586 -82.2642 102° East 436 502 17,700 1,875 Climbing FAA TRACON SMA TRACON (SMA)
Sat 10:47:37 AM 42.0508 -82.2136 109° East 443 510 18,500 2,000 Climbing FAA TRACON SMA TRACON (SMA)
Sat 10:48:12 AM 42.0150 -82.0728 141° Southeast 448 516 20,200 2,463 Climbing Cleveland Center
Sat 10:49:12 AM 41.9142 -81.9617 145° Southeast 448 516 22,400 2,050 Climbing Cleveland Center
Sat 10:50:12 AM 41.8028 -81.8561 146° Southeast 471 542 24,300 1,850 Climbing Cleveland Center
Sat 10:51:12 AM 41.6789 -81.7453 148° Southeast 488 562 26,100 1,600 Climbing Cleveland Center
Sat 10:52:12 AM 41.5611 -81.6458 148° Southeast 500 575 27,500 1,662 Climbing Cleveland Center
Sat 10:53:22 AM 41.4284 -81.5365 148° Southeast 506 582 29,700 1,900 Climbing FlightAware ADS-B
Sat 10:54:12 AM 41.3353 -81.4597 148° Southeast 513 590 31,300 1,745 Climbing Cleveland Center
Sat 10:55:12 AM 41.2153 -81.3589 148° Southeast 513 590 32,900 1,850 Climbing Cleveland Center
Sat 10:56:12 AM 41.0992 -81.2636 148° Southeast 508 585 35,000 1,550 Climbing Cleveland Center
Sat 10:57:12 AM 40.9850 -81.1689 148° Southeast 492 566 36,000 500 Climbing Cleveland Center
Sat 10:58:12 AM 40.8686 -81.0744 148° Southeast 486 559 36,000 100 Level Cleveland Center
Sat 10:59:12 AM 40.7586 -80.9833 148° Southeast 486 559 36,200 900 Climbing Cleveland Center
Sat 11:00:12 AM 40.6464 -80.8897 148° Southeast 486 559 37,800 1,300 Climbing Cleveland Center
Sat 11:01:12 AM 40.5339 -80.7989 148° Southeast 481 554 38,800 436 Climbing Cleveland Center
Sat 11:02:57 AM 40.3351 -80.6382 149° Southeast 482 555 39,000 67 Climbing FlightAware ADS-B
Sat 11:04:12 AM 40.1775 -80.5153 149° Southeast 489 563 39,000  Level Cleveland Center
Sat 11:05:12 AM 40.0608 -80.4231 149° Southeast 489 563 39,000  Level Cleveland Center
Sat 11:06:12 AM 39.9419 -80.3286 148° Southeast 494 568 39,000  Level Cleveland Center
Sat 11:07:12 AM 39.8269 -80.2344 150° Southeast 494 568 39,000 -400 Level Cleveland Center
Sat 11:08:12 AM 39.7142 -80.1486 149° Southeast 494 568 38,200 -1,000 Descending Cleveland Center
Sat 11:09:12 AM 39.6011 -80.0606 149° Southeast 489 563 37,000 -1,631 Descending Cleveland Center
Sat 11:09:55 AM 39.5369 -80.0103 149° Southeast 471 542 35,400 -2,571 Descending Washington Center
Sat 11:10:57 AM 39.4233 -79.9225 145° Southeast 466 536 32,500 -2,950 Descending Washington Center
Sat 11:11:55 AM 39.3164 -79.8250 103° East 466 536 29,500 -1,765 Descending Washington Center
Sat 11:12:56 AM 39.2847 -79.6542 96° East 455 524 29,000 -246 Descending Washington Center
Sat 11:13:57 AM 39.2697 -79.4736 96° East 461 531 29,000  Level Washington Center
Sat 11:14:57 AM 39.2550 -79.2853 99° East 494 568 29,000 -508 Level Washington Center
Sat 11:15:55 AM 39.2311 -79.1017 96° East 512 589 28,000 -2,288 Descending Washington Center
Sat 11:16:55 AM 39.2156 -78.9189 97° East 517 595 24,500 -3,250 Descending Washington Center
Sat 11:17:55 AM 39.1994 -78.7386 98° East 517 595 21,500 -2,926 Descending Washington Center
Sat 11:18:56 AM 39.1811 -78.5664 97° East 506 582 18,600 -2,803 Descending Washington Center
Sat 11:19:57 AM 39.1642 -78.3944 110° East 494 568 15,800 -1,785 Descending Washington Center
Sat 11:20:57 AM 39.1200 -78.2375 116° Southeast 468 539 15,000 -1,220 Descending Washington Center
Sat 11:21:55 AM 39.0647 -78.0886 116° Southeast 462 532 13,400 -1,780 Descending Washington Center
Sat 11:22:55 AM 39.0114 -77.9450 115° Southeast 451 519 11,500 -1,190 Descending Washington Center
Sat 11:23:56 AM 38.9597 -77.8019 106° East 408 470 11,000 -843 Descending Washington Center
Sat 11:24:56 AM 38.9308 -77.6731 88° East 390 449 9,800 -1,340 Descending Washington Center
Sat 11:25:39 AM 38.9333 -77.5833 90° East 330 380 8,700 -1,038 Descending Potomac TRACON
Sat 11:26:40 AM 38.9333 -77.4667 102° East 313 360 8,000 -446 Descending Potomac TRACON
Sat 11:27:40 AM 38.9167 -77.3667 100° East 312 359 7,800 -744 Descending Potomac TRACON
Sat 11:28:41 AM 38.9000 -77.2500 113° Southeast 308 354 6,500 -992 Descending Potomac TRACON
Sat 11:29:41 AM 38.8667 -77.1500 159° South 299 344 5,800 -942 Descending Potomac TRACON
Sat 11:30:42 AM 38.8000 -77.1167 169° South 273 314 4,600 -1,240 Descending Potomac TRACON
Sat 11:31:42 AM 38.7333 -77.1000 113° Southeast 230 265 3,300 -1,438 Descending Potomac TRACON
Sat 11:32:43 AM 38.7167 -77.0500 15° North 203 234 1,700 -843 Descending Potomac TRACON
Sat 11:33:43 AM 38.7667 -77.0333 360° North 137 158 1,600 -397 Descending Potomac TRACON
Sat 11:34:44 AM 38.8000 -77.0333 360° North 134 154 900 -689 Descending Potomac TRACON

Login

Don't have an account? Register now (free) for customized features, flight alerts, and more!